Time,TemperatureF,DewpointF,PressureIn,WindDirection,WindDirectionDegrees,WindSpeedMPH,WindSpeedGustMPH,Humidity,HourlyPrecipIn,Conditions,Clouds,dailyrainin,SoftwareType,DateUTC
2013-05-09 00:01:00,59.6,58.5,29.99,West,269,0.0,0.0,96,0.00,,BKN110,0.12,VWS V14.01,2013-05-09 04:01:00,
2013-05-09 00:05:00,59.5,58.4,29.99,West,269,0.0,0.0,96,0.00,,BKN110,0.00,VWS V14.01,2013-05-09 04:05:00,
2013-05-09 00:10:00,59.3,58.2,29.99,West,268,0.0,0.0,96,0.00,,FEW012,0.00,VWS V14.01,2013-05-09 04:10:00,
2013-05-09 00:15:00,59.2,58.1,29.99,West,269,0.0,0.0,96,0.00,,FEW012,0.00,VWS V14.01,2013-05-09 04:15:00,
2013-05-09 00:20:00,59.0,57.9,29.99,West,269,0.0,0.0,96,0.00,,FEW012,0.00,VWS V14.01,2013-05-09 04:20:00,
2013-05-09 00:25:00,58.9,57.8,29.99,West,268,0.0,0.0,96,0.00,,FEW012,0.00,VWS V14.01,2013-05-09 04:25:00,
2013-05-09 00:30:00,58.7,57.6,29.99,West,268,0.0,0.0,96,0.00,,FEW012,0.00,VWS V14.01,2013-05-09 04:30:00,
2013-05-09 00:35:00,58.5,57.4,29.99,West,269,0.0,0.0,96,0.00,,FEW012,0.00,VWS V14.01,2013-05-09 04:35:00,
2013-05-09 00:45:00,58.3,57.2,29.99,West,268,0.0,0.0,96,0.00,,,0.00,VWS V14.01,2013-05-09 04:45:00,
2013-05-09 00:55:00,58.0,56.9,29.99,West,269,0.0,0.0,96,0.00,,,0.00,VWS V14.01,2013-05-09 04:55:00,
2013-05-09 01:00:00,57.8,56.7,29.99,West,269,0.0,0.0,96,0.00,,,0.00,VWS V14.01,2013-05-09 05:00:00,
2013-05-09 01:05:00,57.5,56.4,29.99,West,268,0.0,0.0,96,0.00,,,0.00,VWS V14.01,2013-05-09 05:05:00,
2013-05-09 01:10:00,57.3,56.2,29.98,West,269,0.0,0.0,96,0.00,,,0.00,VWS V14.01,2013-05-09 05:10:00,
2013-05-09 01:15:00,57.1,56.0,29.98,West,269,0.0,0.0,96,0.00,,,0.00,VWS V14.01,2013-05-09 05:15:00,
2013-05-09 01:20:00,56.9,55.8,29.99,West,268,0.0,0.0,96,0.00,,,0.00,VWS V14.01,2013-05-09 05:20:00,
2013-05-09 01:25:00,56.8,55.7,29.99,West,269,0.0,0.0,96,0.00,,,0.00,VWS V14.01,2013-05-09 05:25:00,
2013-05-09 01:30:00,56.7,55.6,29.98,West,268,0.0,0.0,96,0.00,,,0.00,VWS V14.01,2013-05-09 05:30:00,
2013-05-09 01:35:00,56.5,55.4,29.98,West,269,0.0,1.0,96,0.00,,,0.00,VWS V14.01,2013-05-09 05:35:00,
2013-05-09 01:40:00,56.5,55.4,29.98,West,268,0.0,0.0,96,0.00,,,0.00,VWS V14.01,2013-05-09 05:40:00,
2013-05-09 01:45:00,56.4,55.6,29.98,West,268,0.0,0.0,97,0.00,,,0.00,VWS V14.01,2013-05-09 05:45:00,
2013-05-09 01:50:00,56.3,55.5,29.98,West,269,0.0,0.0,97,0.00,,,0.00,VWS V14.01,2013-05-09 05:50:00,
2013-05-09 01:55:00,56.3,55.5,29.98,West,268,0.0,0.0,97,0.00,,,0.00,VWS V14.01,2013-05-09 05:55:00,
2013-05-09 02:00:00,56.3,55.5,29.98,West,269,0.0,0.0,97,0.00,,,0.00,VWS V14.01,2013-05-09 06:00:00,
2013-05-09 02:05:00,56.3,55.5,29.98,West,268,0.0,0.0,97,0.00,,,0.00,VWS V14.01,2013-05-09 06:05:00,
2013-05-09 02:10:00,56.3,55.5,29.98,West,269,0.0,0.0,97,0.00,,,0.00,VWS V14.01,2013-05-09 06:10:00,
2013-05-09 02:15:00,56.3,55.5,29.98,West,269,0.0,0.0,97,0.00,,,0.00,VWS V14.01,2013-05-09 06:15:00,
2013-05-09 02:20:00,56.3,55.5,29.97,West,268,0.0,0.0,97,0.00,,,0.00,VWS V14.01,2013-05-09 06:20:00,
2013-05-09 02:25:00,56.2,55.4,29.98,West,269,0.0,0.0,97,0.00,,,0.00,VWS V14.01,2013-05-09 06:25:00,
2013-05-09 02:30:00,56.2,55.4,29.98,West,268,0.0,0.0,97,0.00,,,0.00,VWS V14.01,2013-05-09 06:30:00,
2013-05-09 02:35:00,56.1,55.3,29.98,West,269,0.0,0.0,97,0.00,,,0.00,VWS V14.01,2013-05-09 06:35:00,
2013-05-09 02:40:00,56.0,55.2,29.97,West,269,0.0,0.0,97,0.00,,,0.00,VWS V14.01,2013-05-09 06:40:00,
2013-05-09 02:45:00,56.0,55.2,29.97,West,269,0.0,0.0,97,0.00,,,0.00,VWS V14.01,2013-05-09 06:45:00,
2013-05-09 02:50:00,56.1,55.3,29.97,West,269,0.0,0.0,97,0.00,,,0.00,VWS V14.01,2013-05-09 06:50:00,
2013-05-09 02:55:00,56.2,55.4,29.97,West,269,0.0,0.0,97,0.00,,,0.00,VWS V14.01,2013-05-09 06:55:00,
2013-05-09 03:00:00,56.2,55.4,29.97,West,269,0.0,0.0,97,0.00,,,0.00,VWS V14.01,2013-05-09 07:00:00,
2013-05-09 03:05:00,56.2,55.4,29.97,West,269,0.0,0.0,97,0.00,,,0.00,VWS V14.01,2013-05-09 07:05:00,
2013-05-09 03:10:00,56.3,55.5,29.97,West,268,0.0,0.0,97,0.00,,,0.00,VWS V14.01,2013-05-09 07:10:00,
2013-05-09 03:15:00,56.4,55.6,29.97,West,269,0.0,0.0,97,0.00,,,0.00,VWS V14.01,2013-05-09 07:15:00,
2013-05-09 03:20:00,56.5,55.7,29.97,West,269,0.0,0.0,97,0.00,,,0.00,VWS V14.01,2013-05-09 07:20:00,
2013-05-09 03:25:00,56.6,55.8,29.97,West,269,0.0,0.0,97,0.00,,,0.00,VWS V14.01,2013-05-09 07:25:00,
2013-05-09 03:30:00,56.7,55.9,29.97,West,268,0.0,0.0,97,0.00,,,0.00,VWS V14.01,2013-05-09 07:30:00,
2013-05-09 03:35:00,56.7,55.9,29.97,West,268,0.0,0.0,97,0.00,,,0.00,VWS V14.01,2013-05-09 07:35:00,
2013-05-09 03:40:00,56.8,56.0,29.97,West,269,0.0,0.0,97,0.00,,,0.00,VWS V14.01,2013-05-09 07:40:00,
2013-05-09 03:45:00,56.7,55.9,29.97,West,268,0.0,0.0,97,0.00,,,0.00,VWS V14.01,2013-05-09 07:45:00,
2013-05-09 03:50:00,56.7,55.9,29.97,West,269,0.0,0.0,97,0.00,,,0.00,VWS V14.01,2013-05-09 07:50:00,
2013-05-09 03:55:00,56.6,55.8,29.97,West,269,0.0,0.0,97,0.00,,,0.00,VWS V14.01,2013-05-09 07:55:00,
2013-05-09 04:00:00,56.6,55.8,29.98,West,269,0.0,0.0,97,0.00,,,0.00,VWS V14.01,2013-05-09 08:00:00,
2013-05-09 04:05:00,56.7,55.9,29.98,West,268,0.0,0.0,97,0.00,,,0.00,VWS V14.01,2013-05-09 08:05:00,
2013-05-09 04:10:00,56.7,55.9,29.98,West,269,0.0,1.0,97,0.00,,,0.00,VWS V14.01,2013-05-09 08:10:00,
2013-05-09 04:15:00,56.7,55.9,29.98,West,269,0.0,0.0,97,0.00,,,0.00,VWS V14.01,2013-05-09 08:15:00,
2013-05-09 04:20:00,56.7,55.9,29.98,West,268,0.0,0.0,97,0.00,,,0.00,VWS V14.01,2013-05-09 08:20:00,
2013-05-09 04:25:00,56.6,55.8,29.98,West,268,0.0,0.0,97,0.00,,,0.00,VWS V14.01,2013-05-09 08:25:00,
2013-05-09 04:30:00,56.5,55.7,29.98,West,269,0.0,0.0,97,0.00,,,0.00,VWS V14.01,2013-05-09 08:30:00,
2013-05-09 04:35:00,56.4,55.6,29.98,West,269,0.0,0.0,97,0.00,,,0.00,VWS V14.01,2013-05-09 08:35:00,
2013-05-09 04:40:00,56.4,55.6,29.98,West,269,0.0,0.0,97,0.00,,,0.00,VWS V14.01,2013-05-09 08:40:00,
2013-05-09 04:45:00,56.3,55.5,29.98,West,269,0.0,0.0,97,0.00,,,0.00,VWS V14.01,2013-05-09 08:45:00,
2013-05-09 04:50:00,56.2,55.4,29.98,West,269,0.0,0.0,97,0.00,,,0.00,VWS V14.01,2013-05-09 08:50:00,
2013-05-09 04:55:00,56.2,55.4,29.98,West,268,0.0,1.0,97,0.00,,,0.00,VWS V14.01,2013-05-09 08:55:00,
2013-05-09 05:00:00,56.0,55.2,29.98,West,265,0.0,1.0,97,0.00,,,0.00,VWS V14.01,2013-05-09 09:00:00,
2013-05-09 05:05:00,55.9,55.1,29.99,West,265,0.0,0.0,97,0.00,,,0.00,VWS V14.01,2013-05-09 09:05:00,
2013-05-09 05:10:00,55.7,54.9,29.98,West,265,0.0,1.0,97,0.00,,,0.00,VWS V14.01,2013-05-09 09:10:00,
2013-05-09 05:15:00,55.6,54.8,29.99,West,265,0.0,0.0,97,0.00,,,0.00,VWS V14.01,2013-05-09 09:15:00,
2013-05-09 05:20:00,55.6,54.8,29.99,West,265,0.0,0.0,97,0.00,,,0.00,VWS V14.01,2013-05-09 09:20:00,
2013-05-09 05:25:00,55.6,54.8,29.99,West,265,0.0,1.0,97,0.00,,,0.00,VWS V14.01,2013-05-09 09:25:00,
2013-05-09 05:30:00,55.7,54.9,29.99,West,265,0.0,0.0,97,0.00,,,0.00,VWS V14.01,2013-05-09 09:30:00,
2013-05-09 05:35:00,55.7,55.2,29.99,West,265,0.0,1.0,98,0.00,,,0.00,VWS V14.01,2013-05-09 09:35:00,
2013-05-09 05:40:00,55.7,55.2,29.99,West,265,0.0,0.0,98,0.00,,,0.00,VWS V14.01,2013-05-09 09:40:00,
2013-05-09 05:45:00,55.7,55.2,29.99,West,265,0.0,0.0,98,0.00,,,0.00,VWS V14.01,2013-05-09 09:45:00,
2013-05-09 05:50:00,55.6,55.0,29.99,West,265,0.0,1.0,98,0.00,,,0.00,VWS V14.01,2013-05-09 09:50:00,
2013-05-09 05:55:00,55.6,55.0,29.99,West,265,0.0,1.0,98,0.00,,,0.00,VWS V14.01,2013-05-09 09:55:00,
2013-05-09 06:00:00,55.6,55.0,29.99,West,265,0.0,1.0,98,0.00,,,0.00,VWS V14.01,2013-05-09 10:00:00,
2013-05-09 06:05:00,55.5,55.0,29.99,West,265,0.0,1.0,98,0.00,,,0.00,VWS V14.01,2013-05-09 10:05:00,
2013-05-09 06:10:00,55.4,54.8,29.99,West,265,1.0,1.0,98,0.00,,,0.00,VWS V14.01,2013-05-09 10:10:00,
2013-05-09 06:15:00,55.5,55.0,29.99,West,265,0.0,1.0,98,0.00,,,0.00,VWS V14.01,2013-05-09 10:15:00,
2013-05-09 06:20:00,55.5,55.0,29.99,West,265,0.0,1.0,98,0.00,,,0.00,VWS V14.01,2013-05-09 10:20:00,
2013-05-09 06:25:00,55.6,55.0,30.00,West,265,0.0,0.0,98,0.00,,,0.00,VWS V14.01,2013-05-09 10:25:00,
2013-05-09 06:30:00,55.7,55.2,29.99,West,265,0.0,0.0,98,0.00,,,0.00,VWS V14.01,2013-05-09 10:30:00,
2013-05-09 06:35:00,55.7,55.2,30.00,West,265,0.0,0.0,98,0.00,,,0.00,VWS V14.01,2013-05-09 10:35:00,
2013-05-09 06:40:00,55.9,55.3,30.00,West,265,0.0,0.0,98,0.01,,,0.01,VWS V14.01,2013-05-09 10:40:00,
2013-05-09 06:45:00,55.9,55.3,30.00,West,265,0.0,0.0,98,0.01,,,0.01,VWS V14.01,2013-05-09 10:45:00,
2013-05-09 06:50:00,56.0,55.5,30.01,West,265,0.0,0.0,98,0.01,,,0.01,VWS V14.01,2013-05-09 10:50:00,
2013-05-09 06:55:00,56.1,55.5,30.01,West,265,0.0,0.0,98,0.01,,,0.01,VWS V14.01,2013-05-09 10:55:00,
2013-05-09 07:00:00,56.3,55.8,30.01,West,264,0.0,0.0,98,0.01,,,0.01,VWS V14.01,2013-05-09 11:00:00,
2013-05-09 07:05:00,56.4,55.8,30.02,West,264,0.0,1.0,98,0.01,,,0.01,VWS V14.01,2013-05-09 11:05:00,
2013-05-09 07:10:00,56.6,56.0,30.02,West,264,0.0,0.0,98,0.01,,,0.01,VWS V14.01,2013-05-09 11:10:00,
2013-05-09 07:15:00,56.6,56.0,30.02,West,264,0.0,1.0,98,0.01,,,0.01,VWS V14.01,2013-05-09 11:15:00,
2013-05-09 07:20:00,56.6,56.0,30.02,West,264,0.0,1.0,98,0.01,,,0.01,VWS V14.01,2013-05-09 11:20:00,
2013-05-09 07:25:00,56.7,56.1,30.02,West,264,0.0,1.0,98,0.01,,,0.01,VWS V14.01,2013-05-09 11:25:00,
2013-05-09 07:30:00,56.8,56.2,30.03,West,264,0.0,0.0,98,0.01,,,0.01,VWS V14.01,2013-05-09 11:30:00,
2013-05-09 07:35:00,56.8,56.2,30.03,WSW,243,0.0,1.0,98,0.01,,,0.01,VWS V14.01,2013-05-09 11:35:00,
2013-05-09 07:40:00,56.8,56.2,30.03,WSW,253,1.0,2.0,98,0.01,,,0.01,VWS V14.01,2013-05-09 11:40:00,
2013-05-09 07:45:00,56.8,56.2,30.03,WSW,243,1.0,2.0,98,0.00,,,0.01,VWS V14.01,2013-05-09 11:45:00,
2013-05-09 07:50:00,56.6,56.0,30.03,WSW,254,0.0,2.0,98,0.00,,,0.01,VWS V14.01,2013-05-09 11:50:00,
2013-05-09 07:55:00,56.7,56.1,30.03,West,271,1.0,2.0,98,0.00,,,0.01,VWS V14.01,2013-05-09 11:55:00,
2013-05-09 08:00:00,56.6,56.0,30.04,West,266,1.0,2.0,98,0.00,,,0.01,VWS V14.01,2013-05-09 12:00:00,
2013-05-09 08:05:00,56.7,56.1,30.04,WSW,255,0.0,2.0,98,0.00,,,0.01,VWS V14.01,2013-05-09 12:05:00,
2013-05-09 08:10:00,56.8,56.2,30.04,West,271,0.0,2.0,98,0.00,,,0.01,VWS V14.01,2013-05-09 12:10:00,
2013-05-09 08:15:00,57.1,56.5,30.04,WSW,256,1.0,2.0,98,0.00,,,0.01,VWS V14.01,2013-05-09 12:15:00,
2013-05-09 08:20:00,56.9,56.3,30.04,WSW,250,0.0,2.0,98,0.00,,,0.01,VWS V14.01,2013-05-09 12:20:00,
2013-05-09 08:25:00,57.2,56.6,30.04,WSW,252,0.0,1.0,98,0.00,,,0.01,VWS V14.01,2013-05-09 12:25:00,
2013-05-09 08:30:00,57.3,56.7,30.04,West,263,1.0,2.0,98,0.00,,,0.01,VWS V14.01,2013-05-09 12:30:00,
2013-05-09 08:35:00,57.3,56.7,30.04,WSW,237,1.0,1.0,98,0.00,,,0.01,VWS V14.01,2013-05-09 12:35:00,
2013-05-09 08:40:00,57.7,57.1,30.04,WSW,240,1.0,1.0,98,0.00,,,0.01,VWS V14.01,2013-05-09 12:40:00,
2013-05-09 08:45:00,57.9,57.3,30.04,WSW,243,0.0,2.0,98,0.00,,,0.01,VWS V14.01,2013-05-09 12:45:00,
2013-05-09 08:50:00,58.3,57.7,30.04,West,262,0.0,2.0,98,0.00,,,0.01,VWS V14.01,2013-05-09 12:50:00,
2013-05-09 08:55:00,58.4,57.8,30.05,West,259,0.0,1.0,98,0.00,,,0.01,VWS V14.01,2013-05-09 12:55:00,
2013-05-09 09:00:00,58.7,58.1,30.05,WSW,255,0.0,2.0,98,0.00,,SCT200,0.01,VWS V14.01,2013-05-09 13:00:00,
2013-05-09 09:10:00,59.4,58.8,30.05,SW,233,1.0,1.0,98,0.00,,SCT200,0.01,VWS V14.01,2013-05-09 13:10:00,
2013-05-09 09:15:00,59.7,59.1,30.04,SSE,164,0.0,1.0,98,0.00,,SCT200,0.01,VWS V14.01,2013-05-09 13:15:00,
2013-05-09 09:20:00,60.1,59.5,30.04,SSW,209,1.0,2.0,98,0.00,,SCT200,0.01,VWS V14.01,2013-05-09 13:20:00,
2013-05-09 09:25:00,60.1,59.5,30.04,WSW,245,0.0,2.0,98,0.00,,SCT200,0.01,VWS V14.01,2013-05-09 13:25:00,
2013-05-09 09:30:00,60.6,60.0,30.04,SW,231,0.0,2.0,98,0.00,,SCT200,0.01,VWS V14.01,2013-05-09 13:30:00,
2013-05-09 09:35:00,60.9,60.3,30.04,West,262,0.0,2.0,98,0.00,,SCT200,0.01,VWS V14.01,2013-05-09 13:35:00,
2013-05-09 09:40:00,61.4,60.8,30.04,WSW,240,0.0,2.0,98,0.00,,SCT200,0.01,VWS V14.01,2013-05-09 13:40:00,
2013-05-09 09:45:00,62.1,61.2,30.04,SE,136,1.0,2.0,97,0.00,,SCT200,0.01,VWS V14.01,2013-05-09 13:45:00,
2013-05-09 09:50:00,62.8,61.3,30.04,West,260,0.0,2.0,95,0.00,,SCT200,0.01,VWS V14.01,2013-05-09 13:50:00,
2013-05-09 09:55:00,63.4,61.3,30.04,West,261,1.0,2.0,93,0.00,,SCT200,0.01,VWS V14.01,2013-05-09 13:55:00,
2013-05-09 10:00:00,64.3,61.9,30.05,SE,141,1.0,3.0,92,0.00,,SCT200,0.01,VWS V14.01,2013-05-09 14:00:00,
2013-05-09 10:05:00,65.3,62.6,30.05,SSW,202,0.0,2.0,91,0.00,,SCT200,0.01,VWS V14.01,2013-05-09 14:05:00,
2013-05-09 10:10:00,66.0,62.0,30.05,SSW,202,0.0,0.0,87,0.00,,SCT200,0.01,VWS V14.01,2013-05-09 14:10:00,
2013-05-09 10:15:00,66.4,60.7,30.04,West,275,1.0,4.0,82,0.00,,SCT200,0.01,VWS V14.01,2013-05-09 14:15:00,
2013-05-09 10:20:00,67.3,62.0,30.05,WNW,296,0.0,3.0,83,0.00,,SCT200,0.01,VWS V14.01,2013-05-09 14:20:00,
2013-05-09 10:25:00,67.5,60.8,30.05,WSW,258,2.0,5.0,79,0.00,,SCT200,0.01,VWS V14.01,2013-05-09 14:25:00,
2013-05-09 10:30:00,67.6,60.9,30.05,WSW,258,0.0,2.0,79,0.00,,SCT200,0.01,VWS V14.01,2013-05-09 14:30:00,
2013-05-09 10:35:00,68.3,61.9,30.05,WSW,247,1.0,3.0,80,0.00,,SCT200,0.01,VWS V14.01,2013-05-09 14:35:00,
2013-05-09 10:40:00,68.3,60.8,30.05,West,261,3.0,3.0,77,0.00,,SCT200,0.01,VWS V14.01,2013-05-09 14:40:00,
2013-05-09 10:45:00,68.7,61.9,30.05,SW,221,0.0,3.0,79,0.00,,SCT200,0.01,VWS V14.01,2013-05-09 14:45:00,
2013-05-09 10:50:00,69.1,60.1,30.05,WSW,241,2.0,6.0,73,0.00,,SCT200,0.01,VWS V14.01,2013-05-09 14:50:00,
2013-05-09 10:55:00,69.3,59.9,30.05,West,262,0.0,6.0,72,0.00,,SCT200,0.01,VWS V14.01,2013-05-09 14:55:00,
2013-05-09 11:00:00,69.4,59.6,30.05,West,271,0.0,3.0,71,0.00,,SCT200,0.01,VWS V14.01,2013-05-09 15:00:00,
2013-05-09 11:05:00,69.2,59.8,30.05,West,271,0.0,1.0,72,0.00,,SCT200,0.01,VWS V14.01,2013-05-09 15:05:00,
2013-05-09 11:10:00,69.2,60.6,30.05,West,266,2.0,2.0,74,0.00,,SCT200,0.01,VWS V14.01,2013-05-09 15:10:00,
2013-05-09 11:15:00,69.9,60.1,30.05,WNW,289,0.0,4.0,71,0.00,,SCT200,0.01,VWS V14.01,2013-05-09 15:15:00,
2013-05-09 11:20:00,70.2,60.0,30.05,WSW,245,0.0,3.0,70,0.00,,SCT200,0.01,VWS V14.01,2013-05-09 15:20:00,
2013-05-09 11:25:00,70.7,60.5,30.05,WSW,245,0.0,1.0,70,0.00,,SCT200,0.01,VWS V14.01,2013-05-09 15:25:00,
2013-05-09 11:30:00,70.9,60.6,30.04,WSW,248,0.0,1.0,70,0.00,,SCT200,0.01,VWS V14.01,2013-05-09 15:30:00,
2013-05-09 11:35:00,71.3,61.0,30.04,WSW,253,2.0,2.0,70,0.00,,SCT200,0.01,VWS V14.01,2013-05-09 15:35:00,
2013-05-09 11:40:00,72.0,58.3,30.04,SW,228,1.0,3.0,62,0.00,,SCT200,0.01,VWS V14.01,2013-05-09 15:40:00,
2013-05-09 11:45:00,72.2,58.5,30.04,West,264,1.0,4.0,62,0.00,,SCT200,0.01,VWS V14.01,2013-05-09 15:45:00,
2013-05-09 11:50:00,72.5,59.6,30.04,WSW,252,1.0,5.0,64,0.00,,SCT200,0.01,VWS V14.01,2013-05-09 15:50:00,
2013-05-09 11:55:00,72.6,57.9,30.04,WSW,254,2.0,2.0,60,0.00,,SCT200,0.01,VWS V14.01,2013-05-09 15:55:00,
2013-05-09 12:00:00,73.0,58.3,30.04,SE,141,0.0,6.0,60,0.00,,SCT250,0.01,VWS V14.01,2013-05-09 16:00:00,
2013-05-09 12:05:00,73.6,58.4,30.04,SE,137,0.0,2.0,59,0.00,,SCT250,0.01,VWS V14.01,2013-05-09 16:05:00,
2013-05-09 12:10:00,74.1,58.9,30.04,SSW,211,1.0,2.0,59,0.00,,SCT250,0.01,VWS V14.01,2013-05-09 16:10:00,
2013-05-09 12:15:00,74.5,59.2,30.04,West,280,0.0,4.0,59,0.00,,SCT250,0.01,VWS V14.01,2013-05-09 16:15:00,
2013-05-09 12:20:00,74.6,58.9,30.04,West,272,1.0,3.0,58,0.00,,SCT250,0.01,VWS V14.01,2013-05-09 16:20:00,
2013-05-09 12:30:00,75.2,57.4,30.04,WSW,254,0.0,4.0,54,0.00,,SCT250,0.01,VWS V14.01,2013-05-09 16:30:00,
2013-05-09 12:35:00,75.8,59.0,30.04,West,280,1.0,5.0,56,0.00,,SCT250,0.01,VWS V14.01,2013-05-09 16:35:00,
2013-05-09 12:40:00,75.9,57.6,30.04,SW,223,0.0,5.0,53,0.00,,SCT250,0.01,VWS V14.01,2013-05-09 16:40:00,
2013-05-09 12:45:00,76.5,59.2,30.04,WSW,252,0.0,5.0,55,0.00,,SCT250,0.01,VWS V14.01,2013-05-09 16:45:00,
2013-05-09 12:50:00,76.5,59.2,30.03,WNW,284,0.0,4.0,55,0.00,,SCT250,0.01,VWS V14.01,2013-05-09 16:50:00,
2013-05-09 12:55:00,76.6,58.2,30.03,SW,221,0.0,4.0,53,0.00,,SCT250,0.01,VWS V14.01,2013-05-09 16:55:00,
2013-05-09 13:00:00,77.0,58.0,30.03,West,272,0.0,4.0,52,0.00,,SCT250,0.01,VWS V14.01,2013-05-09 17:00:00,
2013-05-09 13:05:00,77.4,59.5,30.03,WSW,255,3.0,4.0,54,0.00,,SCT250,0.01,VWS V14.01,2013-05-09 17:05:00,
2013-05-09 13:10:00,77.5,59.0,30.03,West,270,2.0,5.0,53,0.00,,SCT250,0.01,VWS V14.01,2013-05-09 17:10:00,
2013-05-09 13:15:00,77.7,57.0,30.03,WSW,257,3.0,5.0,49,0.00,,SCT250,0.01,VWS V14.01,2013-05-09 17:15:00,
2013-05-09 13:20:00,77.0,58.0,30.03,SW,235,3.0,8.0,52,0.00,,SCT250,0.01,VWS V14.01,2013-05-09 17:20:00,
2013-05-09 13:25:00,77.3,57.2,30.03,West,279,1.0,8.0,50,0.00,,SCT250,0.01,VWS V14.01,2013-05-09 17:25:00,
2013-05-09 13:30:00,77.5,57.4,30.02,NNE,15,1.0,5.0,50,0.00,,SCT250,0.01,VWS V14.01,2013-05-09 17:30:00,
2013-05-09 13:35:00,78.3,60.3,30.02,WNW,290,0.0,5.0,54,0.00,,SCT250,0.01,VWS V14.01,2013-05-09 17:35:00,
2013-05-09 13:40:00,78.5,58.3,30.02,SW,231,2.0,6.0,50,0.00,,SCT250,0.01,VWS V14.01,2013-05-09 17:40:00,
2013-05-09 13:45:00,78.5,58.3,30.02,West,271,1.0,7.0,50,0.00,,SCT250,0.01,VWS V14.01,2013-05-09 17:45:00,
2013-05-09 13:50:00,79.2,57.8,30.02,ESE,103,0.0,2.0,48,0.00,,SCT250,0.01,VWS V14.01,2013-05-09 17:50:00,
2013-05-09 13:55:00,79.6,59.3,30.02,WSW,239,1.0,3.0,50,0.00,,SCT250,0.01,VWS V14.01,2013-05-09 17:55:00,
2013-05-09 14:00:00,79.1,57.2,30.02,West,272,3.0,6.0,47,0.00,,SCT200,0.01,VWS V14.01,2013-05-09 18:00:00,
2013-05-09 14:10:00,79.4,57.4,30.02,NW,316,1.0,7.0,47,0.00,,SCT200,0.01,VWS V14.01,2013-05-09 18:10:00,
2013-05-09 14:15:00,78.8,55.7,30.02,West,278,2.0,6.0,45,0.00,,SCT200,0.01,VWS V14.01,2013-05-09 18:15:00,
2013-05-09 14:20:00,78.7,56.8,30.02,SW,232,1.0,5.0,47,0.00,,SCT200,0.01,VWS V14.01,2013-05-09 18:20:00,
2013-05-09 14:25:00,79.4,56.8,30.02,West,260,1.0,5.0,46,0.00,,SCT200,0.01,VWS V14.01,2013-05-09 18:25:00,
2013-05-09 14:30:00,79.8,57.8,30.01,West,278,5.0,7.0,47,0.00,,SCT200,0.01,VWS V14.01,2013-05-09 18:30:00,
2013-05-09 14:35:00,79.1,56.6,30.01,West,261,3.0,9.0,46,0.00,,SCT200,0.01,VWS V14.01,2013-05-09 18:35:00,
2013-05-09 14:40:00,79.6,57.0,30.01,West,278,2.0,6.0,46,0.00,,SCT200,0.01,VWS V14.01,2013-05-09 18:40:00,
2013-05-09 14:45:00,79.8,57.8,30.01,SW,235,1.0,7.0,47,0.00,,SCT200,0.01,VWS V14.01,2013-05-09 18:45:00,
2013-05-09 14:50:00,79.9,56.1,30.01,WSW,251,1.0,8.0,44,0.00,,SCT200,0.01,VWS V14.01,2013-05-09 18:50:00,
2013-05-09 14:55:00,80.3,58.2,30.01,East,84,2.0,4.0,47,0.00,,SCT200,0.01,VWS V14.01,2013-05-09 18:55:00,
2013-05-09 15:00:00,81.1,58.4,30.01,WSW,258,0.0,3.0,46,0.00,,SCT200,0.01,VWS V14.01,2013-05-09 19:00:00,
2013-05-09 15:05:00,81.9,57.9,30.01,WSW,239,0.0,3.0,44,0.00,,SCT200,0.01,VWS V14.01,2013-05-09 19:05:00,
2013-05-09 15:10:00,81.2,57.2,30.01,SSW,210,4.0,8.0,44,0.00,,SCT200,0.01,VWS V14.01,2013-05-09 19:10:00,
2013-05-09 15:15:00,81.1,57.2,30.01,West,276,4.0,7.0,44,0.00,,SCT200,0.01,VWS V14.01,2013-05-09 19:15:00,
2013-05-09 15:20:00,81.6,59.4,30.00,West,269,3.0,4.0,47,0.00,,SCT200,0.01,VWS V14.01,2013-05-09 19:20:00,
2013-05-09 15:25:00,81.8,55.8,30.00,SW,222,3.0,7.0,41,0.00,,SCT200,0.01,VWS V14.01,2013-05-09 19:25:00,
2013-05-09 15:30:00,81.7,56.4,30.00,West,272,1.0,6.0,42,0.00,,SCT200,0.01,VWS V14.01,2013-05-09 19:30:00,
2013-05-09 15:35:00,81.6,55.6,30.00,WNW,292,1.0,7.0,41,0.00,,SCT200,0.01,VWS V14.01,2013-05-09 19:35:00,
2013-05-09 15:40:00,81.7,55.7,30.00,WNW,285,2.0,7.0,41,0.00,,SCT200,0.01,VWS V14.01,2013-05-09 19:40:00,
2013-05-09 15:45:00,81.5,55.5,30.00,SW,236,3.0,6.0,41,0.00,,SCT200,0.01,VWS V14.01,2013-05-09 19:45:00,
2013-05-09 15:50:00,81.3,56.0,30.00,WSW,242,0.0,6.0,42,0.00,,SCT200,0.01,VWS V14.01,2013-05-09 19:50:00,
2013-05-09 15:55:00,81.6,55.6,30.00,WNW,296,0.0,6.0,41,0.00,,SCT200,0.01,VWS V14.01,2013-05-09 19:55:00,
2013-05-09 16:00:00,81.7,54.4,30.00,West,271,1.0,6.0,39,0.00,,SCT200,0.01,VWS V14.01,2013-05-09 20:00:00,
2013-05-09 16:10:00,82.1,56.1,30.00,SSW,205,0.0,4.0,41,0.00,,SCT200,0.01,VWS V14.01,2013-05-09 20:10:00,
2013-05-09 16:15:00,81.9,57.2,30.00,WNW,285,1.0,7.0,43,0.00,,SCT200,0.01,VWS V14.01,2013-05-09 20:15:00,
2013-05-09 16:20:00,82.6,57.2,30.00,WSW,255,1.0,1.0,42,0.00,,SCT200,0.01,VWS V14.01,2013-05-09 20:20:00,
2013-05-09 16:25:00,82.7,57.3,30.00,WSW,257,0.0,1.0,42,0.00,,SCT200,0.01,VWS V14.01,2013-05-09 20:25:00,
2013-05-09 16:30:00,83.1,57.0,30.00,NNE,17,0.0,1.0,41,0.00,,SCT200,0.01,VWS V14.01,2013-05-09 20:30:00,
2013-05-09 16:35:00,83.0,56.9,29.99,NW,304,0.0,1.0,41,0.00,,SCT200,0.01,VWS V14.01,2013-05-09 20:35:00,
2013-05-09 16:40:00,83.5,56.0,30.00,NW,304,0.0,0.0,39,0.00,,SCT200,0.01,VWS V14.01,2013-05-09 20:40:00,
2013-05-09 16:45:00,83.0,56.9,30.00,North,1,0.0,5.0,41,0.00,,SCT200,0.01,VWS V14.01,2013-05-09 20:45:00,
2013-05-09 16:50:00,82.2,57.5,30.00,WSW,256,0.0,4.0,43,0.00,,SCT200,0.01,VWS V14.01,2013-05-09 20:50:00,
2013-05-09 16:55:00,81.1,55.9,30.00,West,274,3.0,4.0,42,0.00,,SCT200,0.01,VWS V14.01,2013-05-09 20:55:00,
2013-05-09 17:00:00,80.4,55.9,30.00,WSW,246,1.0,4.0,43,0.00,,SCT200,0.01,VWS V14.01,2013-05-09 21:00:00,
2013-05-09 17:05:00,80.4,57.8,30.00,West,271,1.0,4.0,46,0.00,,SCT200,0.01,VWS V14.01,2013-05-09 21:05:00,
2013-05-09 17:10:00,80.7,58.6,30.00,West,259,0.0,3.0,47,0.00,,SCT200,0.01,VWS V14.01,2013-05-09 21:10:00,
2013-05-09 17:15:00,80.9,58.2,30.00,West,259,0.0,3.0,46,0.00,,SCT200,0.01,VWS V14.01,2013-05-09 21:15:00,
2013-05-09 17:20:00,81.0,55.8,30.00,West,263,2.0,4.0,42,0.00,,SCT200,0.01,VWS V14.01,2013-05-09 21:20:00,
2013-05-09 17:25:00,81.1,57.2,30.00,WSW,242,2.0,4.0,44,0.00,,SCT200,0.01,VWS V14.01,2013-05-09 21:25:00,
2013-05-09 17:30:00,81.4,56.1,30.00,WSW,237,2.0,4.0,42,0.00,,SCT200,0.01,VWS V14.01,2013-05-09 21:30:00,
2013-05-09 17:35:00,82.0,56.7,30.00,WSW,239,0.0,2.0,42,0.00,,SCT200,0.01,VWS V14.01,2013-05-09 21:35:00,
2013-05-09 17:40:00,83.0,58.2,30.00,West,277,4.0,5.0,43,0.00,,SCT200,0.01,VWS V14.01,2013-05-09 21:40:00,
2013-05-09 17:45:00,82.0,56.0,30.00,South,188,1.0,4.0,41,0.00,,SCT200,0.01,VWS V14.01,2013-05-09 21:45:00,
2013-05-09 17:50:00,82.4,57.0,30.00,WSW,239,0.0,2.0,42,0.00,,SCT200,0.01,VWS V14.01,2013-05-09 21:50:00,
2013-05-09 17:55:00,82.9,56.1,29.99,WSW,239,0.0,1.0,40,0.00,,SCT200,0.01,VWS V14.01,2013-05-09 21:55:00,
2013-05-09 18:00:00,83.4,58.6,29.99,WSW,243,0.0,1.0,43,0.00,,SCT200,0.01,VWS V14.01,2013-05-09 22:00:00,
2013-05-09 18:10:00,84.5,58.2,29.99,WSW,257,2.0,2.0,41,0.00,,SCT200,0.01,VWS V14.01,2013-05-09 22:10:00,
2013-05-09 18:15:00,83.2,55.7,29.99,WSW,243,2.0,3.0,39,0.00,,SCT200,0.01,VWS V14.01,2013-05-09 22:15:00,
2013-05-09 18:20:00,81.9,55.2,29.99,West,259,1.0,4.0,40,0.00,,SCT200,0.01,VWS V14.01,2013-05-09 22:20:00,
2013-05-09 18:25:00,82.2,56.2,29.99,SW,234,0.0,1.0,41,0.00,,SCT200,0.01,VWS V14.01,2013-05-09 22:25:00,
2013-05-09 18:30:00,82.8,55.3,29.99,WSW,245,0.0,1.0,39,0.00,,SCT200,0.01,VWS V14.01,2013-05-09 22:30:00,
2013-05-09 18:35:00,82.9,58.8,29.99,WSW,245,0.0,0.0,44,0.00,,SCT200,0.01,VWS V14.01,2013-05-09 22:35:00,
2013-05-09 18:40:00,83.7,56.1,29.99,WSW,245,0.0,1.0,39,0.00,,SCT200,0.01,VWS V14.01,2013-05-09 22:40:00,
2013-05-09 18:45:00,83.0,58.2,29.99,WSW,245,0.0,0.0,43,0.00,,SCT200,0.01,VWS V14.01,2013-05-09 22:45:00,
2013-05-09 18:50:00,81.7,57.7,29.99,WSW,245,0.0,0.0,44,0.00,,SCT200,0.01,VWS V14.01,2013-05-09 22:50:00,
2013-05-09 18:55:00,80.9,57.6,29.99,WSW,245,0.0,0.0,45,0.00,,SCT200,0.01,VWS V14.01,2013-05-09 22:55:00,
2013-05-09 19:00:00,80.0,58.0,29.99,WSW,245,0.0,0.0,47,0.00,,SCT200,0.01,VWS V14.01,2013-05-09 23:00:00,
2013-05-09 19:05:00,79.1,60.0,29.99,WSW,245,0.0,0.0,52,0.00,,SCT200,0.01,VWS V14.01,2013-05-09 23:05:00,
2013-05-09 19:10:00,78.2,62.2,29.99,WSW,245,0.0,0.0,58,0.00,,SCT200,0.01,VWS V14.01,2013-05-09 23:10:00,
2013-05-09 19:15:00,77.5,61.1,29.99,WSW,245,0.0,0.0,57,0.00,,SCT200,0.01,VWS V14.01,2013-05-09 23:15:00,
2013-05-09 19:20:00,77.0,63.5,29.99,WSW,245,0.0,0.0,63,0.00,,SCT200,0.01,VWS V14.01,2013-05-09 23:20:00,
2013-05-09 19:25:00,76.2,63.6,29.99,WSW,245,0.0,0.0,65,0.00,,SCT200,0.01,VWS V14.01,2013-05-09 23:25:00,
2013-05-09 19:30:00,75.1,63.4,29.99,WSW,245,0.0,0.0,67,0.00,,SCT200,0.01,VWS V14.01,2013-05-09 23:30:00,
2013-05-09 19:35:00,74.5,64.1,29.99,WSW,245,0.0,0.0,70,0.00,,SCT200,0.01,VWS V14.01,2013-05-09 23:35:00,
2013-05-09 19:40:00,73.9,64.3,30.00,WSW,245,0.0,0.0,72,0.00,,SCT200,0.01,VWS V14.01,2013-05-09 23:40:00,
2013-05-09 19:45:00,73.3,63.7,30.00,WSW,245,0.0,0.0,72,0.00,,SCT200,0.01,VWS V14.01,2013-05-09 23:45:00,
2013-05-09 19:50:00,72.6,63.5,30.00,WSW,245,0.0,0.0,73,0.00,,SCT200,0.01,VWS V14.01,2013-05-09 23:50:00,
2013-05-09 19:55:00,71.9,63.2,30.00,WSW,245,0.0,0.0,74,0.00,,SCT200,0.01,VWS V14.01,2013-05-09 23:55:00,
2013-05-09 20:00:00,71.1,63.9,30.00,WSW,245,0.0,0.0,78,0.00,,SCT250,0.01,VWS V14.01,2013-05-10 00:00:00,
2013-05-09 20:10:00,70.1,64.0,30.01,WSW,245,0.0,0.0,81,0.00,,SCT250,0.01,VWS V14.01,2013-05-10 00:10:00,
2013-05-09 20:15:00,69.8,64.1,30.01,WSW,245,0.0,0.0,82,0.00,,SCT250,0.01,VWS V14.01,2013-05-10 00:15:00,
2013-05-09 20:20:00,69.2,63.8,30.01,WSW,245,0.0,0.0,83,0.00,,SCT250,0.01,VWS V14.01,2013-05-10 00:20:00,
2013-05-09 20:25:00,68.7,63.3,30.01,WSW,245,0.0,0.0,83,0.00,,SCT250,0.01,VWS V14.01,2013-05-10 00:25:00,
2013-05-09 20:30:00,68.2,63.2,30.01,WSW,245,0.0,0.0,84,0.00,,SCT250,0.01,VWS V14.01,2013-05-10 00:30:00,
2013-05-09 20:35:00,67.8,63.1,30.01,WSW,245,0.0,0.0,85,0.00,,SCT250,0.01,VWS V14.01,2013-05-10 00:35:00,
2013-05-09 20:40:00,67.4,63.4,30.01,WSW,245,0.0,0.0,87,0.00,,SCT250,0.01,VWS V14.01,2013-05-10 00:40:00,
2013-05-09 20:45:00,67.1,63.1,30.02,WSW,245,0.0,0.0,87,0.00,,SCT250,0.01,VWS V14.01,2013-05-10 00:45:00,
2013-05-09 20:50:00,66.7,63.0,30.02,WSW,245,0.0,0.0,88,0.00,,SCT250,0.01,VWS V14.01,2013-05-10 00:50:00,
2013-05-09 20:55:00,66.3,62.6,30.02,WSW,245,0.0,0.0,88,0.00,,SCT250,0.01,VWS V14.01,2013-05-10 00:55:00,
2013-05-09 21:00:00,65.9,62.6,30.03,WSW,245,0.0,0.0,89,0.00,,SCT250,0.01,VWS V14.01,2013-05-10 01:00:00,
2013-05-09 21:05:00,65.6,62.3,30.03,WSW,245,0.0,0.0,89,0.00,,SCT250,0.01,VWS V14.01,2013-05-10 01:05:00,
2013-05-09 21:10:00,65.2,61.9,30.03,WSW,245,0.0,0.0,89,0.00,,SCT250,0.01,VWS V14.01,2013-05-10 01:10:00,
2013-05-09 21:15:00,65.0,61.7,30.03,WSW,245,0.0,0.0,89,0.00,,SCT250,0.01,VWS V14.01,2013-05-10 01:15:00,
2013-05-09 21:20:00,64.7,61.7,30.03,WSW,245,0.0,0.0,90,0.00,,SCT250,0.01,VWS V14.01,2013-05-10 01:20:00,
2013-05-09 21:25:00,64.3,61.6,30.03,WSW,245,0.0,0.0,91,0.00,,SCT250,0.01,VWS V14.01,2013-05-10 01:25:00,
2013-05-09 21:30:00,64.1,61.4,30.04,WSW,245,0.0,0.0,91,0.00,,SCT250,0.01,VWS V14.01,2013-05-10 01:30:00,
2013-05-09 21:35:00,63.8,61.1,30.04,WSW,245,0.0,0.0,91,0.00,,SCT250,0.01,VWS V14.01,2013-05-10 01:35:00,
2013-05-09 21:40:00,63.6,60.9,30.04,WSW,245,0.0,0.0,91,0.00,,SCT250,0.01,VWS V14.01,2013-05-10 01:40:00,
2013-05-09 21:45:00,63.5,61.1,30.04,WSW,245,0.0,0.0,92,0.00,,SCT250,0.01,VWS V14.01,2013-05-10 01:45:00,
2013-05-09 21:50:00,63.4,61.0,30.04,WSW,245,0.0,0.0,92,0.00,,SCT250,0.01,VWS V14.01,2013-05-10 01:50:00,
2013-05-09 21:55:00,63.3,60.9,30.05,WSW,245,0.0,0.0,92,0.00,,SCT250,0.01,VWS V14.01,2013-05-10 01:55:00,
2013-05-09 22:00:00,63.0,60.6,30.05,WSW,245,0.0,0.0,92,0.00,,SCT250,0.01,VWS V14.01,2013-05-10 02:00:00,
2013-05-09 22:05:00,62.6,60.2,30.05,WSW,245,0.0,0.0,92,0.00,,SCT250,0.01,VWS V14.01,2013-05-10 02:05:00,
2013-05-09 22:10:00,62.2,59.8,30.05,WSW,245,0.0,0.0,92,0.00,,SCT250,0.01,VWS V14.01,2013-05-10 02:10:00,
2013-05-09 22:15:00,62.1,60.1,30.05,WSW,245,0.0,0.0,93,0.00,,SCT250,0.01,VWS V14.01,2013-05-10 02:15:00,
2013-05-09 22:20:00,61.9,59.9,30.05,WSW,245,0.0,0.0,93,0.00,,SCT250,0.01,VWS V14.01,2013-05-10 02:20:00,
2013-05-09 22:25:00,61.7,59.7,30.05,WSW,245,0.0,0.0,93,0.00,,SCT250,0.01,VWS V14.01,2013-05-10 02:25:00,
2013-05-09 22:30:00,61.5,59.5,30.05,WSW,245,0.0,0.0,93,0.00,,SCT250,0.01,VWS V14.01,2013-05-10 02:30:00,
2013-05-09 22:35:00,61.3,59.3,30.05,WSW,245,0.0,0.0,93,0.00,,SCT250,0.01,VWS V14.01,2013-05-10 02:35:00,
2013-05-09 22:40:00,61.2,59.5,30.05,WSW,245,0.0,0.0,94,0.00,,SCT250,0.01,VWS V14.01,2013-05-10 02:40:00,
2013-05-09 22:45:00,61.1,59.4,30.05,WSW,245,0.0,0.0,94,0.00,,SCT250,0.01,VWS V14.01,2013-05-10 02:45:00,
2013-05-09 22:50:00,61.0,59.3,30.05,WSW,245,0.0,0.0,94,0.00,,SCT250,0.01,VWS V14.01,2013-05-10 02:50:00,
2013-05-09 22:55:00,60.9,59.2,30.05,WSW,245,0.0,0.0,94,0.00,,SCT250,0.01,VWS V14.01,2013-05-10 02:55:00,
2013-05-09 23:00:00,60.8,59.1,30.04,WSW,245,0.0,0.0,94,0.00,,FEW250,0.01,VWS V14.01,2013-05-10 03:00:00,
2013-05-09 23:05:00,60.7,59.0,30.04,WSW,245,0.0,0.0,94,0.00,,FEW250,0.01,VWS V14.01,2013-05-10 03:05:00,
2013-05-09 23:10:00,60.5,58.8,30.04,WSW,245,0.0,0.0,94,0.00,,FEW250,0.01,VWS V14.01,2013-05-10 03:10:00,
2013-05-09 23:15:00,60.4,59.0,30.04,WSW,245,0.0,0.0,95,0.00,,FEW250,0.01,VWS V14.01,2013-05-10 03:15:00,
2013-05-09 23:20:00,60.3,58.9,30.04,WSW,245,0.0,0.0,95,0.00,,FEW250,0.01,VWS V14.01,2013-05-10 03:20:00,
2013-05-09 23:25:00,60.2,58.8,30.04,WSW,245,0.0,0.0,95,0.00,,FEW250,0.01,VWS V14.01,2013-05-10 03:25:00,
2013-05-09 23:30:00,60.1,58.7,30.04,WSW,245,0.0,0.0,95,0.00,,FEW250,0.01,VWS V14.01,2013-05-10 03:30:00,
2013-05-09 23:35:00,59.9,58.5,30.04,WSW,245,0.0,0.0,95,0.00,,FEW250,0.01,VWS V14.01,2013-05-10 03:35:00,
2013-05-09 23:40:00,59.9,58.5,30.04,WSW,245,0.0,0.0,95,0.00,,FEW250,0.01,VWS V14.01,2013-05-10 03:40:00,
2013-05-09 23:45:00,59.7,58.3,30.04,WSW,245,0.0,0.0,95,0.00,,FEW250,0.01,VWS V14.01,2013-05-10 03:45:00,
2013-05-09 23:50:00,59.7,58.3,30.04,WSW,245,0.0,0.0,95,0.00,,FEW250,0.01,VWS V14.01,2013-05-10 03:50:00,
2013-05-09 23:55:00,59.5,58.1,30.04,WSW,245,0.0,0.0,95,0.00,,FEW250,0.01,VWS V14.01,2013-05-10 03:55:00,